Time;durP1;ratioP1;P1;durP2;ratioP2;P2;SDS_P1;SDS_P2;PMS_P1;PMS_P2;Temp;Humidity;BMP_temperature;BMP_pressure;BME280_temperature;BME280_humidity;BME280_pressure;Samples;Min_cycle;Max_cycle;Signal;HPM_P1;HPM_P2
2022/11/22 00:02:01;;;;;;;173.43;35.38;;;;;;;;;;5013347;28;20054;-75
2022/11/22 00:04:46;;;;;;;69.45;29.08;;;;;;;;;;5013277;28;20046;-77
2022/11/22 00:07:32;;;;;;;106.93;24.58;;;;;;;;;;5013083;28;20049;-74
2022/11/22 00:10:17;;;;;;;116.00;28.48;;;;;;;;;;5013255;28;20479;-77
2022/11/22 00:13:03;;;;;;;95.10;29.27;;;;;;;;;;5013978;28;20046;-77
2022/11/22 00:16:00;;;;;;;104.85;31.48;;;;;;;;;;5013445;28;20066;-78
2022/11/22 00:18:45;;;;;;;123.78;33.50;;;;;;;;;;5017017;28;20034;-77
2022/11/22 00:21:31;;;;;;;143.13;46.58;;;;;;;;;;5016562;28;20046;-77
2022/11/22 00:24:16;;;;;;;143.90;42.03;;;;;;;;;;5016951;28;20038;-76
2022/11/22 00:27:02;;;;;;;125.90;33.05;;;;;;;;;;5023501;28;20042;-77
2022/11/22 00:29:47;;;;;;;89.72;29.05;;;;;;;;;;5016342;28;20045;-77
2022/11/22 00:32:33;;;;;;;86.85;27.63;;;;;;;;;;5016893;28;20079;-76
2022/11/22 00:35:19;;;;;;;87.20;27.20;;;;;;;;;;5016635;28;20181;-77
2022/11/22 00:38:04;;;;;;;273.13;131.63;;;;;;;;;;5016541;28;20050;-76
2022/11/22 00:40:50;;;;;;;145.98;46.45;;;;;;;;;;5016749;28;20061;-76
2022/11/22 00:43:35;;;;;;;104.85;33.28;;;;;;;;;;5017570;28;20050;-77
2022/11/22 00:46:21;;;;;;;96.70;35.47;;;;;;;;;;5016772;28;20046;-75
2022/11/22 00:49:07;;;;;;;85.55;30.83;;;;;;;;;;5022828;28;20046;-75
2022/11/22 00:51:52;;;;;;;76.20;32.20;;;;;;;;;;5016073;28;20046;-75
2022/11/22 00:54:38;;;;;;;95.97;37.72;;;;;;;;;;5016827;28;20041;-75
2022/11/22 00:57:23;;;;;;;89.60;35.60;;;;;;;;;;5016064;28;20045;-75
2022/11/22 01:00:09;;;;;;;100.50;34.75;;;;;;;;;;5016552;28;20054;-75
2022/11/22 01:02:54;;;;;;;86.65;34.60;;;;;;;;;;5016516;28;20053;-77
2022/11/22 01:05:41;;;;;;;82.35;29.45;;;;;;;;;;5015768;28;20041;-75
2022/11/22 01:08:26;;;;;;;51.38;21.13;;;;;;;;;;5016500;28;20037;-74
2022/11/22 01:11:14;;;;;;;78.53;23.35;;;;;;;;;;5015509;28;20042;-74
2022/11/22 01:14:00;;;;;;;50.95;23.10;;;;;;;;;;5016318;28;20479;-76
2022/11/22 01:16:46;;;;;;;61.42;22.67;;;;;;;;;;5016041;28;20046;-74
2022/11/22 01:19:31;;;;;;;72.68;21.83;;;;;;;;;;5015432;28;20046;-76
2022/11/22 01:22:17;;;;;;;57.50;21.85;;;;;;;;;;5015848;28;20391;-74
2022/11/22 01:25:02;;;;;;;39.33;18.63;;;;;;;;;;5022231;28;20046;-76
2022/11/22 01:27:49;;;;;;;53.47;16.92;;;;;;;;;;5015372;28;20046;-76
2022/11/22 01:30:35;;;;;;;40.80;16.05;;;;;;;;;;5015755;28;20046;-74
2022/11/22 01:33:20;;;;;;;37.58;13.15;;;;;;;;;;5015350;28;20058;-77
2022/11/22 01:36:06;;;;;;;34.78;11.75;;;;;;;;;;5015642;28;20042;-74
2022/11/22 01:38:51;;;;;;;29.80;13.98;;;;;;;;;;5022423;28;20038;-75
2022/11/22 01:41:37;;;;;;;21.73;9.57;;;;;;;;;;5015453;28;20054;-75
2022/11/22 01:44:24;;;;;;;33.35;15.55;;;;;;;;;;5015761;28;20041;-76
2022/11/22 01:47:12;;;;;;;32.53;13.02;;;;;;;;;;5014819;28;20041;-75
2022/11/22 01:50:03;;;;;;;48.00;16.63;;;;;;;;;;5015900;28;20034;-76
2022/11/22 01:52:48;;;;;;;65.47;17.50;;;;;;;;;;5015126;28;20037;-76
2022/11/22 01:55:35;;;;;;;59.08;17.85;;;;;;;;;;5015004;28;20053;-77
2022/11/22 01:58:22;;;;;;;70.45;18.33;;;;;;;;;;5015282;28;20042;-75
2022/11/22 02:01:08;;;;;;;76.15;17.80;;;;;;;;;;5014667;28;20057;-75
2022/11/22 02:03:57;;;;;;;39.70;16.88;;;;;;;;;;5015213;28;20046;-76
2022/11/22 02:07:01;;;;;;;58.92;16.48;;;;;;;;;;5015131;28;20050;-76
2022/11/22 02:09:50;;;;;;;37.22;17.17;;;;;;;;;;5014663;28;20046;-76
2022/11/22 02:12:36;;;;;;;52.40;17.10;;;;;;;;;;5021594;28;20038;-77
2022/11/22 02:15:21;;;;;;;51.72;14.32;;;;;;;;;;5014467;28;20050;-77
2022/11/22 02:18:06;;;;;;;41.03;13.90;;;;;;;;;;5014971;28;20046;-75
2022/11/22 02:20:53;;;;;;;36.13;16.92;;;;;;;;;;5015209;28;20045;-76
2022/11/22 02:23:38;;;;;;;54.92;18.63;;;;;;;;;;5014569;28;20034;-76
2022/11/22 02:26:28;;;;;;;46.40;17.42;;;;;;;;;;5014946;28;20399;-76
2022/11/22 02:29:14;;;;;;;48.92;17.75;;;;;;;;;;5015412;28;20041;-78
2022/11/22 02:32:00;;;;;;;54.15;18.33;;;;;;;;;;5014029;28;20488;-76
2022/11/22 02:34:48;;;;;;;71.00;17.80;;;;;;;;;;5014640;28;20050;-76
2022/11/22 02:37:32;;;;;;;58.75;14.43;;;;;;;;;;5014182;28;20054;-77
2022/11/22 02:40:19;;;;;;;41.72;16.27;;;;;;;;;;5014247;28;20387;-77
2022/11/22 02:43:10;;;;;;;62.75;16.58;;;;;;;;;;5014308;28;20041;-76
2022/11/22 02:46:06;;;;;;;65.88;18.80;;;;;;;;;;5014419;28;20487;-77
2022/11/22 02:48:52;;;;;;;49.53;14.85;;;;;;;;;;5014592;28;20042;-77
2022/11/22 02:51:37;;;;;;;45.78;15.15;;;;;;;;;;5013408;28;20050;-76
2022/11/22 02:54:23;;;;;;;43.67;13.60;;;;;;;;;;5014895;28;20049;-76
2022/11/22 02:57:08;;;;;;;50.03;12.38;;;;;;;;;;5013955;28;20038;-77
2022/11/22 02:59:54;;;;;;;95.47;36.58;;;;;;;;;;5014298;28;20050;-75
2022/11/22 03:02:39;;;;;;;54.60;20.27;;;;;;;;;;5014146;28;20045;-77
2022/11/22 03:05:25;;;;;;;67.43;17.92;;;;;;;;;;5013841;28;20054;-77
2022/11/22 03:08:11;;;;;;;75.53;15.98;;;;;;;;;;5014269;28;20046;-75
2022/11/22 03:10:59;;;;;;;79.20;17.17;;;;;;;;;;5014052;28;20053;-76
2022/11/22 03:13:45;;;;;;;74.72;15.75;;;;;;;;;;5013751;28;20395;-75
2022/11/22 03:16:30;;;;;;;67.82;16.42;;;;;;;;;;5013922;28;20046;-77
2022/11/22 03:19:16;;;;;;;94.88;18.60;;;;;;;;;;5013475;28;20495;-76
2022/11/22 03:22:02;;;;;;;63.35;17.92;;;;;;;;;;5014111;28;20395;-77
2022/11/22 03:24:47;;;;;;;80.28;19.80;;;;;;;;;;5013968;28;20046;-76
2022/11/22 03:27:33;;;;;;;77.57;15.10;;;;;;;;;;5019902;28;20393;-77
2022/11/22 03:30:18;;;;;;;72.90;15.20;;;;;;;;;;5013716;28;20038;-77
2022/11/22 03:33:03;;;;;;;54.50;16.45;;;;;;;;;;5013591;28;20041;-75
2022/11/22 03:35:48;;;;;;;95.97;15.35;;;;;;;;;;5013698;28;20042;-77
2022/11/22 03:38:35;;;;;;;91.90;14.73;;;;;;;;;;5014039;28;20399;-78
2022/11/22 03:41:20;;;;;;;73.32;15.60;;;;;;;;;;5013062;28;20046;-78
2022/11/22 03:44:06;;;;;;;92.13;15.52;;;;;;;;;;5013860;28;20395;-77
2022/11/22 03:46:51;;;;;;;66.82;13.60;;;;;;;;;;5013494;28;20483;-78
2022/11/22 03:49:36;;;;;;;94.38;16.33;;;;;;;;;;5013656;28;20049;-77
2022/11/22 03:52:22;;;;;;;71.47;14.65;;;;;;;;;;5017654;28;20484;-78
2022/11/22 03:55:08;;;;;;;52.83;15.50;;;;;;;;;;5023486;28;20426;-76
2022/11/22 03:57:53;;;;;;;38.08;15.93;;;;;;;;;;5018058;28;20046;-78
2022/11/22 04:00:39;;;;;;;62.50;15.10;;;;;;;;;;5017447;28;20046;-77
2022/11/22 04:03:24;;;;;;;49.90;15.02;;;;;;;;;;5016860;28;20041;-76
2022/11/22 04:06:10;;;;;;;66.15;15.20;;;;;;;;;;5017873;28;20045;-77
2022/11/22 04:08:55;;;;;;;71.28;15.18;;;;;;;;;;5017048;28;20042;-76
2022/11/22 04:11:41;;;;;;;80.93;13.18;;;;;;;;;;5009050;28;20053;-78
2022/11/22 04:17:39;;;;;;;67.18;14.30;;;;;;;;;;5016689;28;20041;-77
2022/11/22 04:23:31;;;;;;;47.72;15.10;;;;;;;;;;5016916;28;20046;-78
2022/11/22 04:26:16;;;;;;;49.72;13.45;;;;;;;;;;5017633;28;20468;-77
2022/11/22 04:29:02;;;;;;;52.60;16.10;;;;;;;;;;5017171;28;20046;-75
2022/11/22 04:34:52;;;;;;;78.90;21.38;;;;;;;;;;5017001;28;20042;-78
2022/11/22 04:37:38;;;;;;;50.58;16.20;;;;;;;;;;5016794;28;20391;-78
2022/11/22 04:40:24;;;;;;;74.32;23.42;;;;;;;;;;5016785;28;20058;-79
2022/11/22 04:46:21;;;;;;;58.58;17.23;;;;;;;;;;5016406;28;20053;-77
2022/11/22 04:49:07;;;;;;;46.80;13.55;;;;;;;;;;5016582;28;20426;-77
2022/11/22 04:54:55;;;;;;;53.05;13.32;;;;;;;;;;5016486;28;20041;-76
2022/11/22 04:57:41;;;;;;;54.33;12.50;;;;;;;;;;5016569;28;20045;-77
2022/11/22 05:00:28;;;;;;;33.17;12.23;;;;;;;;;;5015960;28;20502;-76
2022/11/22 05:03:13;;;;;;;43.40;13.20;;;;;;;;;;5015575;28;20395;-77
2022/11/22 05:06:04;;;;;;;32.47;11.32;;;;;;;;;;5022467;28;20041;-78
2022/11/22 05:08:49;;;;;;;62.53;13.45;;;;;;;;;;5016404;28;20503;-76
2022/11/22 05:11:34;;;;;;;45.10;12.07;;;;;;;;;;5015866;28;20046;-76
2022/11/22 05:14:20;;;;;;;55.17;14.13;;;;;;;;;;5015586;28;20487;-76
2022/11/22 05:17:05;;;;;;;54.95;13.50;;;;;;;;;;5016123;28;20399;-78
2022/11/22 05:19:50;;;;;;;51.90;13.43;;;;;;;;;;5015934;28;20438;-78
2022/11/22 05:25:40;;;;;;;31.45;11.40;;;;;;;;;;5015994;28;20046;-77
2022/11/22 05:28:30;;;;;;;25.88;11.88;;;;;;;;;;5015349;28;20046;-78
2022/11/22 05:31:22;;;;;;;36.00;12.02;;;;;;;;;;5015491;28;20046;-77
2022/11/22 05:34:07;;;;;;;43.25;14.07;;;;;;;;;;5014759;28;20034;-78
2022/11/22 05:36:53;;;;;;;42.00;15.18;;;;;;;;;;5022193;28;20403;-75
2022/11/22 05:39:38;;;;;;;44.03;17.08;;;;;;;;;;5015717;28;20046;-76
2022/11/22 05:42:23;;;;;;;37.78;18.55;;;;;;;;;;5015111;28;20042;-78
2022/11/22 05:45:09;;;;;;;56.78;18.30;;;;;;;;;;5022260;28;20042;-76
2022/11/22 05:47:56;;;;;;;76.63;23.67;;;;;;;;;;5015529;28;20053;-78
2022/11/22 05:50:41;;;;;;;50.78;18.85;;;;;;;;;;5015379;28;20494;-76
2022/11/22 05:53:27;;;;;;;62.70;19.48;;;;;;;;;;5015376;28;20392;-76
2022/11/22 05:56:21;;;;;;;54.17;19.80;;;;;;;;;;5015456;28;20030;-76
2022/11/22 05:59:07;;;;;;;;;;;;;;;;;;5015729;28;20050;-75
2022/11/22 06:01:52;;;;;;;;;;;;;;;;;;5016318;28;19914;-76
2022/11/22 06:04:38;;;;;;;118.15;25.98;;;;;;;;;;5014630;28;19917;-78
2022/11/22 06:07:24;;;;;;;113.53;27.92;;;;;;;;;;5015063;28;20041;-77
2022/11/22 06:10:09;;;;;;;65.53;22.92;;;;;;;;;;5014512;28;20384;-77
2022/11/22 06:12:55;;;;;;;40.20;18.92;;;;;;;;;;5014419;28;20042;-76
2022/11/22 06:15:40;;;;;;;44.75;18.30;;;;;;;;;;5014778;28;20037;-76
2022/11/22 06:18:26;;;;;;;31.83;16.98;;;;;;;;;;5000166;28;20467;-79
2022/11/22 06:21:15;;;;;;;55.42;23.95;;;;;;;;;;5013387;28;20045;-76
2022/11/22 06:24:00;;;;;;;46.00;20.65;;;;;;;;;;5012985;28;20479;-78
2022/11/22 06:26:46;;;;;;;34.97;19.23;;;;;;;;;;5014493;28;20054;-76
2022/11/22 06:29:31;;;;;;;39.20;19.58;;;;;;;;;;4998454;28;20045;-77
2022/11/22 06:32:16;;;;;;;34.05;18.73;;;;;;;;;;4998352;28;20054;-75
2022/11/22 06:35:02;;;;;;;27.70;15.95;;;;;;;;;;5014688;28;20049;-78
2022/11/22 06:37:47;;;;;;;32.58;16.83;;;;;;;;;;5014213;28;20045;-77
2022/11/22 06:40:33;;;;;;;46.88;19.00;;;;;;;;;;5014324;28;20054;-75
2022/11/22 06:43:18;;;;;;;38.28;17.20;;;;;;;;;;5014368;28;20050;-77
2022/11/22 06:46:06;;;;;;;49.25;23.00;;;;;;;;;;5020407;28;20046;-75
2022/11/22 06:48:52;;;;;;;40.97;19.85;;;;;;;;;;5020859;28;20054;-77
2022/11/22 06:51:37;;;;;;;45.13;18.35;;;;;;;;;;5014050;28;20046;-74
2022/11/22 06:54:23;;;;;;;26.90;14.45;;;;;;;;;;5013886;28;20053;-78
2022/11/22 06:57:12;;;;;;;34.00;15.45;;;;;;;;;;5014420;28;20042;-76
2022/11/22 06:59:57;;;;;;;34.22;18.63;;;;;;;;;;5013763;28;20434;-76
2022/11/22 07:02:42;;;;;;;38.55;19.15;;;;;;;;;;5013872;28;20042;-77
2022/11/22 07:05:28;;;;;;;45.90;22.85;;;;;;;;;;5014319;28;20050;-76
2022/11/22 07:08:13;;;;;;;58.28;25.27;;;;;;;;;;5005234;28;20042;-76
2022/11/22 07:11:06;;;;;;;51.17;26.85;;;;;;;;;;5014295;28;20042;-76
2022/11/22 07:13:54;;;;;;;28.63;15.18;;;;;;;;;;5013809;28;20045;-74
2022/11/22 07:16:39;;;;;;;54.78;28.20;;;;;;;;;;5014368;28;20041;-78
2022/11/22 07:19:25;;;;;;;104.82;46.25;;;;;;;;;;5020691;28;20395;-76
2022/11/22 07:22:10;;;;;;;78.53;39.75;;;;;;;;;;5013424;28;20042;-77
2022/11/22 07:24:56;;;;;;;64.68;30.63;;;;;;;;;;5005644;28;20050;-74
2022/11/22 07:27:42;;;;;;;65.15;28.42;;;;;;;;;;5013479;28;20403;-75
2022/11/22 07:30:27;;;;;;;70.90;30.23;;;;;;;;;;5014925;28;20042;-76
2022/11/22 07:33:13;;;;;;;62.20;26.83;;;;;;;;;;5013760;28;20049;-77
2022/11/22 07:36:06;;;;;;;43.70;20.88;;;;;;;;;;5013695;28;20400;-75
2022/11/22 07:38:52;;;;;;;40.75;20.27;;;;;;;;;;5015182;28;20499;-77
2022/11/22 07:41:38;;;;;;;22.75;12.18;;;;;;;;;;5015174;28;20054;-76
2022/11/22 07:44:23;;;;;;;16.73;10.40;;;;;;;;;;5013619;28;20046;-76
2022/11/22 07:47:09;;;;;;;15.10;8.90;;;;;;;;;;5021018;28;20042;-75
2022/11/22 07:49:54;;;;;;;13.90;9.48;;;;;;;;;;5014841;28;20046;-78
2022/11/22 07:52:40;;;;;;;14.13;8.43;;;;;;;;;;5014374;28;20053;-77
2022/11/22 07:55:26;;;;;;;10.75;7.22;;;;;;;;;;5014577;28;20046;-77
2022/11/22 07:58:12;;;;;;;10.50;6.97;;;;;;;;;;5013656;28;20046;-78
2022/11/22 08:00:57;;;;;;;11.32;7.88;;;;;;;;;;5015741;28;20050;-78
2022/11/22 08:03:43;;;;;;;12.57;7.78;;;;;;;;;;5013555;28;20054;-75
2022/11/22 08:06:28;;;;;;;11.73;8.07;;;;;;;;;;5013193;28;20046;-77
2022/11/22 08:09:13;;;;;;;11.90;7.60;;;;;;;;;;5013416;28;20054;-74
2022/11/22 08:11:59;;;;;;;11.15;7.00;;;;;;;;;;5012703;28;20403;-74
2022/11/22 08:14:45;;;;;;;10.75;6.80;;;;;;;;;;5013379;28;20049;-76
2022/11/22 08:17:30;;;;;;;11.27;7.05;;;;;;;;;;5013108;28;20042;-77
2022/11/22 08:20:15;;;;;;;13.93;9.35;;;;;;;;;;5013615;28;20042;-77
2022/11/22 08:23:00;;;;;;;16.63;8.18;;;;;;;;;;5013582;28;20046;-79
2022/11/22 08:25:46;;;;;;;17.50;11.80;;;;;;;;;;5012783;28;20038;-79
2022/11/22 08:28:32;;;;;;;16.17;8.65;;;;;;;;;;5013232;28;20042;-75
2022/11/22 08:31:18;;;;;;;22.90;11.73;;;;;;;;;;5012878;28;20475;-76
2022/11/22 08:34:05;;;;;;;12.38;8.27;;;;;;;;;;5012878;28;20089;-76
2022/11/22 08:36:50;;;;;;;11.68;7.80;;;;;;;;;;5013639;28;20049;-78
2022/11/22 08:39:36;;;;;;;9.00;6.13;;;;;;;;;;5023002;28;20057;-78
2022/11/22 08:42:22;;;;;;;7.20;4.43;;;;;;;;;;5016751;28;20054;-75
2022/11/22 08:45:08;;;;;;;8.02;5.25;;;;;;;;;;5016636;28;20058;-76
2022/11/22 08:47:56;;;;;;;8.48;6.05;;;;;;;;;;5016260;28;20050;-77
2022/11/22 08:50:52;;;;;;;6.88;4.75;;;;;;;;;;5017447;28;20049;-79
2022/11/22 08:53:40;;;;;;;10.80;4.82;;;;;;;;;;5016179;28;20054;-76
2022/11/22 08:56:25;;;;;;;8.25;5.20;;;;;;;;;;5016400;28;20403;-77
2022/11/22 08:59:11;;;;;;;23.45;11.05;;;;;;;;;;5016403;28;20046;-76
2022/11/22 09:01:56;;;;;;;11.73;7.07;;;;;;;;;;5015664;28;20050;-78
2022/11/22 09:04:42;;;;;;;22.73;12.07;;;;;;;;;;5016221;28;20054;-77
2022/11/22 09:07:28;;;;;;;14.80;7.75;;;;;;;;;;5001233;28;20963;-79
2022/11/22 09:10:13;;;;;;;16.20;9.13;;;;;;;;;;5022591;28;20050;-78
2022/11/22 09:12:59;;;;;;;9.48;6.15;;;;;;;;;;5015631;28;20042;-76
2022/11/22 09:15:45;;;;;;;15.57;9.30;;;;;;;;;;5015738;28;20042;-77
2022/11/22 09:18:30;;;;;;;15.60;10.50;;;;;;;;;;5016458;28;20042;-77
2022/11/22 09:21:18;;;;;;;12.50;8.57;;;;;;;;;;5015775;28;20037;-77
2022/11/22 09:24:04;;;;;;;15.52;9.77;;;;;;;;;;5016126;28;20046;-77
2022/11/22 09:26:49;;;;;;;19.90;11.70;;;;;;;;;;5021068;28;20476;-77
2022/11/22 09:29:34;;;;;;;12.90;8.20;;;;;;;;;;5020229;28;20046;-78
2022/11/22 09:32:19;;;;;;;15.68;9.15;;;;;;;;;;5006482;28;20053;-77
2022/11/22 09:35:05;;;;;;;24.55;15.35;;;;;;;;;;5021214;28;20042;-78
2022/11/22 09:37:50;;;;;;;25.50;15.50;;;;;;;;;;5020921;28;20046;-79
2022/11/22 09:40:36;;;;;;;20.38;13.00;;;;;;;;;;5021977;28;20050;-78
2022/11/22 09:43:59;;;;;;;19.50;12.70;;;;;;;;;;5018031;28;20399;-83
2022/11/22 09:46:57;;;;;;;19.08;12.50;;;;;;;;;;5022290;28;20050;-81
2022/11/22 09:50:00;;;;;;;19.27;11.43;;;;;;;;;;5015341;28;20049;-84
2022/11/22 09:52:52;;;;;;;19.20;11.40;;;;;;;;;;5015108;28;20053;-80
2022/11/22 09:55:45;;;;;;;14.23;8.95;;;;;;;;;;5015222;28;20050;-83
2022/11/22 09:58:46;;;;;;;17.52;11.18;;;;;;;;;;5014584;28;20038;-81
2022/11/22 10:01:42;;;;;;;19.60;10.50;;;;;;;;;;5015466;28;20050;-82
2022/11/22 10:04:39;;;;;;;14.25;9.18;;;;;;;;;;5014912;28;20037;-81
2022/11/22 10:07:38;;;;;;;13.63;9.63;;;;;;;;;;5015285;28;20045;-82
2022/11/22 10:10:31;;;;;;;9.48;6.68;;;;;;;;;;5015530;28;20041;-84
2022/11/22 10:13:37;;;;;;;16.45;10.93;;;;;;;;;;5014763;28;20042;-77
2022/11/22 10:16:31;;;;;;;15.52;10.13;;;;;;;;;;5015284;28;20046;-83
2022/11/22 10:19:44;;;;;;;18.75;11.30;;;;;;;;;;5014697;28;20491;-78
2022/11/22 10:22:30;;;;;;;19.23;10.70;;;;;;;;;;5015011;28;20038;-78
2022/11/22 10:25:22;;;;;;;17.67;9.55;;;;;;;;;;5014925;28;20046;-81
2022/11/22 10:28:53;;;;;;;11.90;6.75;;;;;;;;;;5014604;28;20042;-78
2022/11/22 10:31:46;;;;;;;14.00;7.68;;;;;;;;;;4935028;29;20079;-79
2022/11/22 10:35:07;;;;;;;11.75;6.93;;;;;;;;;;5014159;28;20050;-77
2022/11/22 10:38:10;;;;;;;15.75;9.73;;;;;;;;;;5014492;28;20046;-78
2022/11/22 10:41:02;;;;;;;12.30;7.38;;;;;;;;;;5014313;28;20046;-78
2022/11/22 10:44:09;;;;;;;11.75;6.97;;;;;;;;;;5014866;28;20038;-78
2022/11/22 10:46:59;;;;;;;14.23;7.90;;;;;;;;;;5014621;28;20050;-77
2022/11/22 10:49:45;;;;;;;13.63;6.97;;;;;;;;;;5014416;28;20049;-79
2022/11/22 10:52:42;;;;;;;15.30;8.45;;;;;;;;;;5014370;28;20046;-79
2022/11/22 10:55:48;;;;;;;12.88;8.40;;;;;;;;;;5013662;28;20038;-79
2022/11/22 10:58:46;;;;;;;12.35;6.85;;;;;;;;;;5014568;28;20053;-79
2022/11/22 11:01:39;;;;;;;21.25;12.18;;;;;;;;;;5013944;28;20045;-79
2022/11/22 11:04:31;;;;;;;18.63;8.82;;;;;;;;;;5017011;28;20491;-79
2022/11/22 11:07:20;;;;;;;15.00;9.43;;;;;;;;;;4999739;28;20046;-80
2022/11/22 11:10:27;;;;;;;15.07;10.00;;;;;;;;;;5013606;28;20045;-78
2022/11/22 11:13:20;;;;;;;19.23;11.25;;;;;;;;;;5020475;28;20046;-79
2022/11/22 11:16:09;;;;;;;15.93;9.52;;;;;;;;;;5013588;28;20041;-80
2022/11/22 11:19:10;;;;;;;16.27;9.48;;;;;;;;;;4992053;28;20050;-80
2022/11/22 11:22:20;;;;;;;15.25;8.43;;;;;;;;;;5014172;28;20383;-79
2022/11/22 11:25:31;;;;;;;19.40;11.98;;;;;;;;;;5013657;28;20050;-79
2022/11/22 11:28:26;;;;;;;22.23;11.10;;;;;;;;;;5013704;28;20407;-80
2022/11/22 11:31:12;;;;;;;28.58;14.45;;;;;;;;;;5012956;28;20494;-80
2022/11/22 11:34:25;;;;;;;19.08;11.18;;;;;;;;;;5020129;28;20053;-79
2022/11/22 11:37:20;;;;;;;16.15;9.93;;;;;;;;;;5013499;28;20391;-80
2022/11/22 11:40:25;;;;;;;18.25;11.48;;;;;;;;;;5020015;28;20415;-80
2022/11/22 11:43:29;;;;;;;15.07;9.75;;;;;;;;;;5013901;28;20042;-78
2022/11/22 11:46:26;;;;;;;18.65;8.23;;;;;;;;;;5013168;28;20395;-79
2022/11/22 11:49:17;;;;;;;11.80;6.82;;;;;;;;;;5013984;28;20046;-77
2022/11/22 11:52:33;;;;;;;13.07;7.97;;;;;;;;;;5013014;28;20034;-78
2022/11/22 11:55:18;;;;;;;18.95;9.80;;;;;;;;;;5020596;28;20391;-80
2022/11/22 11:58:19;;;;;;;21.27;11.80;;;;;;;;;;5013395;28;20042;-79
2022/11/22 12:01:10;;;;;;;18.15;9.80;;;;;;;;;;5013515;28;20054;-77
2022/11/22 12:03:59;;;;;;;20.55;11.50;;;;;;;;;;5020493;28;20403;-78
2022/11/22 12:06:52;;;;;;;12.15;6.93;;;;;;;;;;5012810;28;20049;-77
2022/11/22 12:09:43;;;;;;;12.40;7.65;;;;;;;;;;5013410;28;20045;-78
2022/11/22 12:12:48;;;;;;;13.48;8.48;;;;;;;;;;5014581;28;20054;-79
2022/11/22 12:15:57;;;;;;;17.35;9.18;;;;;;;;;;5017025;28;20057;-79
2022/11/22 12:19:03;;;;;;;22.17;11.80;;;;;;;;;;5017074;28;20483;-79
2022/11/22 12:22:18;;;;;;;15.65;9.93;;;;;;;;;;5016563;28;20049;-78
2022/11/22 12:25:22;;;;;;;12.30;7.53;;;;;;;;;;5016992;28;20049;-79
2022/11/22 12:28:18;;;;;;;21.13;11.82;;;;;;;;;;5016441;28;20057;-79
2022/11/22 12:31:30;;;;;;;11.85;8.13;;;;;;;;;;5017258;28;20391;-80
2022/11/22 12:34:29;;;;;;;10.75;6.60;;;;;;;;;;5023185;28;20054;-77
2022/11/22 12:37:20;;;;;;;13.48;6.38;;;;;;;;;;5017108;28;20041;-77
2022/11/22 12:40:16;;;;;;;13.88;8.52;;;;;;;;;;5023450;28;20042;-79
2022/11/22 12:43:15;;;;;;;15.32;10.13;;;;;;;;;;5016245;28;20403;-79
2022/11/22 12:46:10;;;;;;;11.85;8.30;;;;;;;;;;5018859;28;20042;-78
2022/11/22 12:49:04;;;;;;;13.48;9.55;;;;;;;;;;5016006;28;20391;-77
2022/11/22 12:51:52;;;;;;;;;;;;;;;;;;5017127;28;20045;-80
2022/11/22 12:54:42;;;;;;;18.98;12.48;;;;;;;;;;5016749;28;19917;-78
2022/11/22 12:57:41;;;;;;;14.80;10.68;;;;;;;;;;5016027;28;20045;-78
2022/11/22 13:00:32;;;;;;;9.60;5.78;;;;;;;;;;5016397;28;20046;-78
2022/11/22 13:03:29;;;;;;;7.40;4.55;;;;;;;;;;5021945;28;20045;-78
2022/11/22 13:06:19;;;;;;;11.35;5.88;;;;;;;;;;5022889;28;20054;-78
2022/11/22 13:09:06;;;;;;;12.23;7.57;;;;;;;;;;5016500;28;20042;-78
2022/11/22 13:12:11;;;;;;;11.38;6.70;;;;;;;;;;5022574;28;20403;-78
2022/11/22 13:14:58;;;;;;;20.33;13.63;;;;;;;;;;5016503;28;20053;-78
2022/11/22 13:17:44;;;;;;;84.20;49.75;;;;;;;;;;5022034;28;20218;-78
2022/11/22 13:20:36;;;;;;;25.13;17.88;;;;;;;;;;5016055;28;20054;-79
2022/11/22 13:23:50;;;;;;;17.45;8.52;;;;;;;;;;5015681;28;20038;-79
2022/11/22 13:26:48;;;;;;;22.00;15.68;;;;;;;;;;5015623;28;20049;-79
2022/11/22 13:29:35;;;;;;;11.75;8.35;;;;;;;;;;5016178;28;20038;-82
2022/11/22 13:32:23;;;;;;;11.65;6.70;;;;;;;;;;5014773;28;20050;-78
2022/11/22 13:35:10;;;;;;;12.60;6.43;;;;;;;;;;5021784;28;20038;-78
2022/11/22 13:38:01;;;;;;;10.68;6.28;;;;;;;;;;5014955;28;20045;-78
2022/11/22 13:40:52;;;;;;;8.77;5.60;;;;;;;;;;5022514;28;20046;-78
2022/11/22 13:43:50;;;;;;;11.10;6.07;;;;;;;;;;5015957;28;20042;-77
2022/11/22 13:46:56;;;;;;;9.65;5.38;;;;;;;;;;5014879;28;20046;-76
2022/11/22 13:49:44;;;;;;;15.48;8.63;;;;;;;;;;5015556;28;20049;-77
2022/11/22 13:52:51;;;;;;;17.63;11.82;;;;;;;;;;5014724;28;20399;-77
2022/11/22 13:55:36;;;;;;;18.15;10.95;;;;;;;;;;5015338;28;20483;-76
2022/11/22 13:58:25;;;;;;;22.67;13.32;;;;;;;;;;5015111;28;20042;-78
2022/11/22 14:01:32;;;;;;;38.47;21.55;;;;;;;;;;5014591;28;20045;-76
2022/11/22 14:04:24;;;;;;;40.10;21.73;;;;;;;;;;5015112;28;20037;-76
2022/11/22 14:07:10;;;;;;;21.98;13.25;;;;;;;;;;5014668;28;20042;-77
2022/11/22 14:09:57;;;;;;;40.72;21.65;;;;;;;;;;5015050;28;20046;-79
2022/11/22 14:13:20;;;;;;;41.58;24.33;;;;;;;;;;5014945;28;20054;-76
2022/11/22 14:16:04;;;;;;;15.05;9.85;;;;;;;;;;5021335;28;20050;-77
2022/11/22 14:18:57;;;;;;;22.08;11.07;;;;;;;;;;5014937;28;20061;-76
2022/11/22 14:21:48;;;;;;;18.65;11.43;;;;;;;;;;5014308;28;20476;-76
2022/11/22 14:24:50;;;;;;;26.80;17.83;;;;;;;;;;5015444;28;20049;-79
2022/11/22 14:28:19;;;;;;;19.98;12.48;;;;;;;;;;5018086;28;20046;-79
2022/11/22 14:31:18;;;;;;;22.60;13.10;;;;;;;;;;5012387;28;20058;-77
2022/11/22 14:34:23;;;;;;;37.90;18.42;;;;;;;;;;5020568;28;20395;-78
2022/11/22 14:37:11;;;;;;;13.07;8.60;;;;;;;;;;5014001;28;20054;-78
2022/11/22 14:40:06;;;;;;;20.40;13.68;;;;;;;;;;5014708;28;20054;-81
2022/11/22 14:42:54;;;;;;;11.68;7.45;;;;;;;;;;5013992;28;20050;-79
2022/11/22 14:45:44;;;;;;;10.45;7.28;;;;;;;;;;5020409;28;20042;-79
2022/11/22 14:48:34;;;;;;;12.27;6.97;;;;;;;;;;5014183;28;20042;-79
2022/11/22 14:51:26;;;;;;;9.85;6.32;;;;;;;;;;5013973;28;20484;-77
2022/11/22 14:54:22;;;;;;;11.32;7.75;;;;;;;;;;5013857;28;20041;-79
2022/11/22 14:57:14;;;;;;;5.43;3.80;;;;;;;;;;5020386;28;20038;-78
2022/11/22 15:00:21;;;;;;;7.70;4.13;;;;;;;;;;5014483;28;20423;-78
2022/11/22 15:03:25;;;;;;;5.90;3.85;;;;;;;;;;5013942;28;20046;-78
2022/11/22 15:06:18;;;;;;;7.30;4.50;;;;;;;;;;5014087;28;20054;-80
2022/11/22 15:09:10;;;;;;;7.82;4.57;;;;;;;;;;5014512;28;20050;-78
2022/11/22 15:11:58;;;;;;;26.98;11.57;;;;;;;;;;5020120;28;20053;-81
2022/11/22 15:14:47;;;;;;;7.68;4.82;;;;;;;;;;5013730;28;20495;-79
2022/11/22 15:17:36;;;;;;;9.25;5.55;;;;;;;;;;5013463;28;20399;-79
2022/11/22 15:20:47;;;;;;;8.20;4.57;;;;;;;;;;5013997;28;20049;-77
2022/11/22 15:23:35;;;;;;;4.78;3.03;;;;;;;;;;5014087;28;20053;-79
2022/11/22 15:26:22;;;;;;;3.03;2.20;;;;;;;;;;5012838;28;20492;-77
2022/11/22 15:29:07;;;;;;;11.38;4.53;;;;;;;;;;5014002;28;20050;-80
2022/11/22 15:31:58;;;;;;;5.28;2.60;;;;;;;;;;5012780;28;20042;-80
2022/11/22 15:34:49;;;;;;;7.22;3.35;;;;;;;;;;5020284;28;20042;-79
2022/11/22 15:38:05;;;;;;;7.85;5.22;;;;;;;;;;5014105;28;20038;-77
2022/11/22 15:40:53;;;;;;;8.63;5.28;;;;;;;;;;5013485;28;20050;-80
2022/11/22 15:43:38;;;;;;;6.25;3.83;;;;;;;;;;5004891;28;20046;-81
2022/11/22 15:46:25;;;;;;;9.02;5.50;;;;;;;;;;5014496;28;20395;-81
2022/11/22 15:49:14;;;;;;;4.78;3.63;;;;;;;;;;5017500;28;20042;-79
2022/11/22 15:52:00;;;;;;;3.75;2.53;;;;;;;;;;5017887;28;20050;-81
2022/11/22 15:54:46;;;;;;;6.80;2.67;;;;;;;;;;5016977;28;20041;-79
2022/11/22 15:57:31;;;;;;;4.18;2.75;;;;;;;;;;5023841;28;20049;-79
2022/11/22 16:00:20;;;;;;;5.78;2.95;;;;;;;;;;5017224;28;20400;-77
2022/11/22 16:03:23;;;;;;;6.80;4.13;;;;;;;;;;5017953;28;20054;-78
2022/11/22 16:06:14;;;;;;;7.28;3.75;;;;;;;;;;5017804;28;20046;-80
2022/11/22 16:09:04;;;;;;;2.63;2.28;;;;;;;;;;5019181;28;20053;-77
2022/11/22 16:11:53;;;;;;;6.57;2.95;;;;;;;;;;5017542;28;20046;-78
2022/11/22 16:14:41;;;;;;;6.63;3.88;;;;;;;;;;5016621;28;20479;-79
2022/11/22 16:17:26;;;;;;;8.45;4.78;;;;;;;;;;5017079;28;20394;-77
2022/11/22 16:20:21;;;;;;;9.57;4.95;;;;;;;;;;5016987;28;20053;-77
2022/11/22 16:23:10;;;;;;;4.93;3.20;;;;;;;;;;5016690;28;20045;-79
2022/11/22 16:26:11;;;;;;;3.97;2.60;;;;;;;;;;5017242;28;20038;-77
2022/11/22 16:29:24;;;;;;;5.22;3.47;;;;;;;;;;5016635;28;20046;-78
2022/11/22 16:32:11;;;;;;;4.70;2.90;;;;;;;;;;5016975;28;20046;-79
2022/11/22 16:34:56;;;;;;;7.35;4.28;;;;;;;;;;5016975;28;20050;-78
2022/11/22 16:37:43;;;;;;;5.95;3.70;;;;;;;;;;5016751;28;20041;-79
2022/11/22 16:40:29;;;;;;;11.15;5.70;;;;;;;;;;5016621;28;20054;-79
2022/11/22 16:43:21;;;;;;;8.05;4.97;;;;;;;;;;5016321;28;20046;-77
2022/11/22 16:46:06;;;;;;;7.13;4.13;;;;;;;;;;5016353;28;20058;-78
2022/11/22 16:48:53;;;;;;;8.32;4.70;;;;;;;;;;5016537;28;20054;-76
2022/11/22 16:51:43;;;;;;;5.00;3.25;;;;;;;;;;5016057;28;20042;-77
2022/11/22 16:54:31;;;;;;;12.48;7.15;;;;;;;;;;5016295;28;20046;-76
2022/11/22 16:57:16;;;;;;;20.45;12.02;;;;;;;;;;5022400;28;20046;-78